createdAt,value
2016-08-28T00:02:03.743Z,22.8
2016-08-28T00:07:03.437Z,22.7
2016-08-28T00:12:02.954Z,22.5
2016-08-28T00:17:03.570Z,22.4
2016-08-28T00:22:02.941Z,22.4
2016-08-28T00:27:03.662Z,22.3
2016-08-28T00:32:03.363Z,22.3
2016-08-28T00:37:03.025Z,22.2
2016-08-28T00:42:03.637Z,22.0
2016-08-28T00:47:03.111Z,22.0
2016-08-28T00:52:02.936Z,22.2
2016-08-28T00:57:03.533Z,22.2
2016-08-28T01:02:03.216Z,22.1
2016-08-28T01:07:03.332Z,22.1
2016-08-28T01:12:03.012Z,22.1
2016-08-28T01:17:12.846Z,21.9
2016-08-28T01:22:03.381Z,21.9
2016-08-28T01:27:03.101Z,21.8
2016-08-28T01:32:03.668Z,21.7
2016-08-28T01:37:03.189Z,21.7
2016-08-28T01:42:03.704Z,21.6
2016-08-28T01:47:03.425Z,21.6
2016-08-28T01:52:02.910Z,21.6
2016-08-28T01:57:03.036Z,21.3
2016-08-28T02:02:03.552Z,21.2
2016-08-28T02:07:03.399Z,21.3
2016-08-28T02:12:02.973Z,21.2
2016-08-28T02:17:03.617Z,21.2
2016-08-28T02:22:03.224Z,21.1
2016-08-28T02:27:03.718Z,21.0
2016-08-28T02:32:03.160Z,21.2
2016-08-28T02:37:03.623Z,21.2
2016-08-28T02:42:03.101Z,21.1
2016-08-28T02:47:03.461Z,21.2
2016-08-28T02:52:03.645Z,21.2
2016-08-28T02:57:03.179Z,21.1
2016-08-28T03:02:03.409Z,21.0
2016-08-28T03:07:03.065Z,20.8
2016-08-28T03:12:03.607Z,20.7
2016-08-28T03:17:03.839Z,20.6
2016-08-28T03:22:03.350Z,20.6
2016-08-28T03:27:03.762Z,20.6
2016-08-28T03:32:03.111Z,20.4
2016-08-28T03:37:03.560Z,20.4
2016-08-28T03:42:03.671Z,20.5
2016-08-28T03:47:03.374Z,20.6
2016-08-28T03:52:03.667Z,20.9
2016-08-28T03:57:03.031Z,20.9
2016-08-28T04:02:03.809Z,21.0
2016-08-28T04:07:02.957Z,21.0
2016-08-28T04:12:03.824Z,20.9
2016-08-28T04:17:10.814Z,21.0
2016-08-28T04:22:02.864Z,21.0
2016-08-28T04:27:03.315Z,21.2
2016-08-28T04:32:17.297Z,21.1
2016-08-28T04:37:03.140Z,21.3
2016-08-28T04:42:03.162Z,21.3
2016-08-28T04:47:23.244Z,21.3
2016-08-28T04:52:03.024Z,21.3
2016-08-28T04:57:03.254Z,21.3
2016-08-28T05:02:17.439Z,21.4
2016-08-28T05:07:03.046Z,21.8
2016-08-28T05:12:03.838Z,21.8
2016-08-28T05:17:17.444Z,22.0
2016-08-28T05:22:02.983Z,22.1
2016-08-28T05:27:02.966Z,22.1
2016-08-28T05:32:16.787Z,22.1
2016-08-28T05:37:03.598Z,22.1
2016-08-28T05:42:03.029Z,22.1
2016-08-28T05:47:22.359Z,22.1
2016-08-28T05:52:03.193Z,22.1
2016-08-28T05:57:03.273Z,22.2
2016-08-28T06:02:17.510Z,22.5
2016-08-28T06:07:03.029Z,22.7
2016-08-28T06:12:03.178Z,22.7
2016-08-28T06:17:17.009Z,23.1
2016-08-28T06:22:03.041Z,23.1
2016-08-28T06:27:03.071Z,23.3
2016-08-28T06:32:16.670Z,23.5
2016-08-28T06:37:02.924Z,23.7
2016-08-28T06:42:03.066Z,24.2
2016-08-28T06:47:17.118Z,24.1
2016-08-28T06:52:02.988Z,24.3
2016-08-28T06:57:03.288Z,24.5
2016-08-28T07:02:16.593Z,24.5
2016-08-28T07:07:03.162Z,24.3
2016-08-28T07:12:02.968Z,24.7
2016-08-28T07:17:16.951Z,24.9
2016-08-28T07:22:03.188Z,24.9
2016-08-28T07:27:03.890Z,25.2
2016-08-28T07:32:17.006Z,25.6
2016-08-28T07:37:02.894Z,25.9
2016-08-28T07:42:03.785Z,26.2
2016-08-28T07:47:17.095Z,26.4
2016-08-28T07:52:03.246Z,26.8
2016-08-28T07:57:03.139Z,27.1
2016-08-28T08:02:22.010Z,27.5
2016-08-28T08:07:02.931Z,27.9
2016-08-28T08:12:03.017Z,28.2
2016-08-28T08:17:17.018Z,28.6
2016-08-28T08:22:03.055Z,28.6
2016-08-28T08:27:03.010Z,28.8
2016-08-28T08:32:26.656Z,29.1
2016-08-28T08:37:03.458Z,29.3
2016-08-28T08:42:03.276Z,29.6
2016-08-28T08:47:17.300Z,30.3
2016-08-28T08:52:02.904Z,30.7
2016-08-28T08:57:02.824Z,30.9
2016-08-28T09:02:16.787Z,31.1
2016-08-28T09:07:03.227Z,31.4
2016-08-28T09:12:03.404Z,31.4
2016-08-28T09:17:17.219Z,31.7
2016-08-28T09:22:03.289Z,32.0
2016-08-28T09:27:03.215Z,32.6
2016-08-28T09:32:27.177Z,32.6
2016-08-28T09:37:03.397Z,33.0
2016-08-28T09:42:03.258Z,33.5
2016-08-28T09:47:17.426Z,33.9
2016-08-28T09:52:03.364Z,33.9
2016-08-28T09:57:03.541Z,34.2
2016-08-28T10:02:19.757Z,34.2
2016-08-28T10:07:03.338Z,34.5
2016-08-28T10:12:03.646Z,34.8
2016-08-28T10:17:17.370Z,35.1
2016-08-28T10:22:03.447Z,35.1
2016-08-28T10:27:03.323Z,35.6
2016-08-28T10:37:04.079Z,36.1
2016-08-28T10:42:02.947Z,36.1
2016-08-28T10:47:17.374Z,36.2
2016-08-28T10:52:03.050Z,36.3
2016-08-28T10:57:03.763Z,36.8
2016-08-28T11:02:17.066Z,36.8
2016-08-28T11:07:03.279Z,37.1
2016-08-28T11:12:03.219Z,37.1
2016-08-28T11:17:17.874Z,37.1
2016-08-28T11:22:03.332Z,37.4
2016-08-28T11:27:03.020Z,37.8
2016-08-28T11:32:21.981Z,37.9
2016-08-28T11:37:03.263Z,37.9
2016-08-28T11:42:02.959Z,37.9
2016-08-28T11:47:19.131Z,38.4
2016-08-28T11:52:03.275Z,38.4
2016-08-28T11:57:03.087Z,38.4
2016-08-28T12:02:16.912Z,38.8
2016-08-28T12:07:02.862Z,38.8
2016-08-28T12:12:03.255Z,38.8
2016-08-28T12:17:16.941Z,38.6
2016-08-28T12:22:03.140Z,38.4
2016-08-28T12:27:03.801Z,38.2
2016-08-28T12:32:17.036Z,38.2
2016-08-28T12:37:03.864Z,38.2
2016-08-28T12:42:03.147Z,38.1
2016-08-28T12:47:17.144Z,38.1
2016-08-28T12:52:03.688Z,38.1
2016-08-28T12:57:03.187Z,38.2
2016-08-28T13:02:16.837Z,37.6
2016-08-28T13:07:03.829Z,37.6
2016-08-28T13:12:03.339Z,38.2
2016-08-28T13:17:17.075Z,38.5
2016-08-28T13:22:03.090Z,39.0
2016-08-28T13:27:03.266Z,40.0
2016-08-28T13:32:17.488Z,40.8
2016-08-28T13:37:03.559Z,41.4
2016-08-28T13:42:03.557Z,41.4
2016-08-28T13:47:17.250Z,41.9
2016-08-28T13:52:03.557Z,42.0
2016-08-28T13:57:03.190Z,42.7
2016-08-28T20:02:03.336Z,26.8
2016-08-28T20:07:03.310Z,26.7
2016-08-28T20:12:03.121Z,26.7
2016-08-28T20:17:03.882Z,26.7
2016-08-28T20:22:03.198Z,26.5
2016-08-28T20:27:03.717Z,26.4
2016-08-28T20:32:04.248Z,26.3
2016-08-28T20:37:03.100Z,26.0
2016-08-28T20:42:03.115Z,26.0
2016-08-28T20:47:03.663Z,26.0
2016-08-28T20:57:03.028Z,25.6
2016-08-28T21:02:03.347Z,25.5
2016-08-28T21:07:03.229Z,25.4
2016-08-28T21:12:03.311Z,25.3
2016-08-28T21:17:03.257Z,25.2
2016-08-28T21:22:02.963Z,25.0
2016-08-28T21:27:03.389Z,24.9
2016-08-28T21:32:03.059Z,24.8
2016-08-28T21:37:02.956Z,24.8
2016-08-28T21:42:03.389Z,24.7
2016-08-28T21:47:04.120Z,24.7
2016-08-28T21:52:03.508Z,24.6
2016-08-28T21:57:03.094Z,24.6
2016-08-28T22:02:04.086Z,24.6
2016-08-28T22:07:03.449Z,24.6
2016-08-28T22:12:03.305Z,24.6
2016-08-28T22:22:03.366Z,24.6
2016-08-28T22:27:03.715Z,24.5
2016-08-28T22:32:03.512Z,24.3
2016-08-28T22:37:03.186Z,24.3
2016-08-28T22:42:03.617Z,24.2
2016-08-28T22:47:03.217Z,24.1
2016-08-28T22:52:03.380Z,24.0
2016-08-28T22:57:02.955Z,23.9
2016-08-28T23:02:03.211Z,23.9
2016-08-28T23:07:03.519Z,23.9
2016-08-28T23:12:03.698Z,23.8
2016-08-28T23:17:03.566Z,23.9
2016-08-28T23:22:03.547Z,23.6
2016-08-28T23:27:02.962Z,23.6
2016-08-28T23:32:03.441Z,23.6
2016-08-28T23:37:03.227Z,23.4
2016-08-28T23:42:03.796Z,23.4
2016-08-28T23:47:03.180Z,23.3
2016-08-28T23:52:03.332Z,23.3
2016-08-28T23:57:03.814Z,23.3
